Terminal Aerodrome Forecast
Issued by NWS

Home | Current Version | Previous Version | Text Only | Print | Product List | Glossary On
Versions: 1 2 3 4 5 6 7 8 9 10 11 12 13 14 15 16
000
FTUS43 KABR 282324
TAFATY
TAF
KATY 282324Z 2900/2924 17015KT P6SM BKN200
     FM290500 20008KT P6SM VCSH OVC050
     FM291000 33008KT P6SM VCSH OVC015
     FM291600 35018G26KT P6SM BKN250=

USA.gov is the U.S. government's official web portal to all federal, state and local government web resources and services.